sensor_id;sensor_type;location;lat;lon;timestamp;pressure;altitude;pressure_sealevel;temperature;humidity
3150;BME280;32503;47.748;8.960;2023-10-31T00:01:14;95532.50;;;13.26;73.69
3150;BME280;32503;47.748;8.960;2023-10-31T00:03:41;95533.69;;;13.25;73.79
3150;BME280;32503;47.748;8.960;2023-10-31T00:06:11;95539.56;;;13.20;73.99
3150;BME280;32503;47.748;8.960;2023-10-31T00:08:38;95535.28;;;13.19;73.93
3150;BME280;32503;47.748;8.960;2023-10-31T00:11:05;95537.69;;;13.14;73.70
3150;BME280;32503;47.748;8.960;2023-10-31T00:13:32;95542.38;;;13.09;74.22
3150;BME280;32503;47.748;8.960;2023-10-31T00:15:59;95545.50;;;13.08;73.83
3150;BME280;32503;47.748;8.960;2023-10-31T00:18:26;95544.66;;;13.11;73.96
3150;BME280;32503;47.748;8.960;2023-10-31T00:20:53;95533.06;;;13.11;74.18
3150;BME280;32503;47.748;8.960;2023-10-31T00:23:22;95530.09;;;12.98;73.70
3150;BME280;32503;47.748;8.960;2023-10-31T00:25:49;95547.84;;;13.06;73.76
3150;BME280;32503;47.748;8.960;2023-10-31T00:28:16;95557.13;;;13.05;73.83
3150;BME280;32503;47.748;8.960;2023-10-31T00:30:43;95558.28;;;13.04;73.64
3150;BME280;32503;47.748;8.960;2023-10-31T00:33:10;95557.56;;;13.00;73.69
3150;BME280;32503;47.748;8.960;2023-10-31T00:35:37;95539.88;;;12.84;73.71
3150;BME280;32503;47.748;8.960;2023-10-31T00:38:04;95542.91;;;12.94;73.63
3150;BME280;32503;47.748;8.960;2023-10-31T00:40:33;95561.88;;;12.97;73.03
3150;BME280;32503;47.748;8.960;2023-10-31T00:43:00;95553.31;;;12.99;73.03
3150;BME280;32503;47.748;8.960;2023-10-31T00:45:27;95555.66;;;12.97;73.17
3150;BME280;32503;47.748;8.960;2023-10-31T00:47:54;95550.22;;;12.97;73.16
3150;BME280;32503;47.748;8.960;2023-10-31T00:50:21;95541.00;;;12.90;73.36
3150;BME280;32503;47.748;8.960;2023-10-31T00:52:48;95551.09;;;12.86;73.58
3150;BME280;32503;47.748;8.960;2023-10-31T00:55:15;95561.22;;;12.82;73.21
3150;BME280;32503;47.748;8.960;2023-10-31T00:57:44;95558.50;;;12.82;73.20
3150;BME280;32503;47.748;8.960;2023-10-31T01:00:12;95566.59;;;12.86;72.85
3150;BME280;32503;47.748;8.960;2023-10-31T01:02:39;95579.03;;;12.83;72.71
3150;BME280;32503;47.748;8.960;2023-10-31T01:05:07;95599.22;;;12.75;72.84
3150;BME280;32503;47.748;8.960;2023-10-31T01:07:34;95610.06;;;12.75;72.72
3150;BME280;32503;47.748;8.960;2023-10-31T01:10:01;95611.25;;;12.74;72.48
3150;BME280;32503;47.748;8.960;2023-10-31T01:12:28;95628.59;;;12.84;72.43
3150;BME280;32503;47.748;8.960;2023-10-31T01:14:58;95629.41;;;12.81;72.47
3150;BME280;32503;47.748;8.960;2023-10-31T01:17:25;95627.84;;;12.83;72.18
3150;BME280;32503;47.748;8.960;2023-10-31T01:19:52;95636.38;;;12.82;72.14
3150;BME280;32503;47.748;8.960;2023-10-31T01:22:18;95636.38;;;12.82;72.19
3150;BME280;32503;47.748;8.960;2023-10-31T01:24:45;95649.56;;;12.80;72.11
3150;BME280;32503;47.748;8.960;2023-10-31T01:27:12;95647.25;;;12.78;72.16
3150;BME280;32503;47.748;8.960;2023-10-31T01:29:40;95617.56;;;12.57;71.93
3150;BME280;32503;47.748;8.960;2023-10-31T01:32:08;95648.00;;;12.79;71.87
3150;BME280;32503;47.748;8.960;2023-10-31T01:34:35;95636.03;;;12.76;71.80
3150;BME280;32503;47.748;8.960;2023-10-31T01:37:02;95636.78;;;12.77;71.64
3150;BME280;32503;47.748;8.960;2023-10-31T01:39:29;95641.88;;;12.71;71.72
3150;BME280;32503;47.748;8.960;2023-10-31T01:41:56;95643.06;;;12.66;71.31
3150;BME280;32503;47.748;8.960;2023-10-31T01:44:23;95644.22;;;12.69;71.06
3150;BME280;32503;47.748;8.960;2023-10-31T01:46:50;95645.78;;;12.63;71.02
3150;BME280;32503;47.748;8.960;2023-10-31T01:49:19;95641.16;;;12.60;70.52
3150;BME280;32503;47.748;8.960;2023-10-31T01:51:46;95645.00;;;12.66;70.61
3150;BME280;32503;47.748;8.960;2023-10-31T01:54:13;95644.22;;;12.69;70.49
3150;BME280;32503;47.748;8.960;2023-10-31T01:56:41;95590.97;;;12.37;70.75
3150;BME280;32503;47.748;8.960;2023-10-31T01:59:09;95638.81;;;12.65;70.63
3150;BME280;32503;47.748;8.960;2023-10-31T02:01:39;95639.56;;;12.69;70.65
3150;BME280;32503;47.748;8.960;2023-10-31T02:04:06;95627.16;;;12.68;70.35
3150;BME280;32503;47.748;8.960;2023-10-31T02:06:34;95638.78;;;12.69;70.53
3150;BME280;32503;47.748;8.960;2023-10-31T02:09:01;95632.59;;;12.65;70.42
3150;BME280;32503;47.748;8.960;2023-10-31T02:11:28;95638.84;;;12.62;70.62
3150;BME280;32503;47.748;8.960;2023-10-31T02:13:55;95641.13;;;12.63;70.66
3150;BME280;32503;47.748;8.960;2023-10-31T02:16:22;95643.44;;;12.65;70.72
3150;BME280;32503;47.748;8.960;2023-10-31T02:18:49;95655.09;;;12.65;70.69
3150;BME280;32503;47.748;8.960;2023-10-31T02:21:19;95649.66;;;12.65;70.23
3150;BME280;32503;47.748;8.960;2023-10-31T02:23:57;95658.97;;;12.61;70.28
3150;BME280;32503;47.748;8.960;2023-10-31T02:26:29;95664.41;;;12.61;70.24
3150;BME280;32503;47.748;8.960;2023-10-31T02:28:57;95664.41;;;12.57;70.38
3150;BME280;32503;47.748;8.960;2023-10-31T02:31:24;95660.94;;;12.57;70.23
3150;BME280;32503;47.748;8.960;2023-10-31T02:33:51;95667.13;;;12.57;70.33
3150;BME280;32503;47.748;8.960;2023-10-31T02:36:19;95652.00;;;12.60;70.30
3150;BME280;32503;47.748;8.960;2023-10-31T02:38:46;95665.19;;;12.58;70.39
3150;BME280;32503;47.748;8.960;2023-10-31T02:41:15;95678.34;;;12.59;70.43
3150;BME280;32503;47.748;8.960;2023-10-31T02:43:42;95684.53;;;12.60;70.43
3150;BME280;32503;47.748;8.960;2023-10-31T02:46:09;95684.13;;;12.61;70.35
3150;BME280;32503;47.748;8.960;2023-10-31T02:48:38;95683.78;;;12.56;70.15
3150;BME280;32503;47.748;8.960;2023-10-31T02:51:06;95687.28;;;12.52;70.14
3150;BME280;32503;47.748;8.960;2023-10-31T02:53:33;95684.19;;;12.50;70.32
3150;BME280;32503;47.748;8.960;2023-10-31T02:56:01;95678.03;;;12.46;70.42
3150;BME280;32503;47.748;8.960;2023-10-31T02:58:29;95688.47;;;12.51;70.32
3150;BME280;32503;47.748;8.960;2023-10-31T03:00:56;95683.78;;;12.56;70.23
3150;BME280;32503;47.748;8.960;2023-10-31T03:03:23;95691.53;;;12.57;69.98
3150;BME280;32503;47.748;8.960;2023-10-31T03:05:50;95692.31;;;12.54;69.67
3150;BME280;32503;47.748;8.960;2023-10-31T03:08:17;95693.09;;;12.51;69.47
3150;BME280;32503;47.748;8.960;2023-10-31T03:10:48;95692.31;;;12.50;69.48
3150;BME280;32503;47.748;8.960;2023-10-31T03:13:17;95697.41;;;12.45;69.82
3150;BME280;32503;47.748;8.960;2023-10-31T03:15:46;95691.59;;;12.46;69.56
3150;BME280;32503;47.748;8.960;2023-10-31T03:18:13;95693.16;;;12.40;70.01
3150;BME280;32503;47.748;8.960;2023-10-31T03:20:43;95689.28;;;12.41;70.07
3150;BME280;32503;47.748;8.960;2023-10-31T03:23:11;95688.09;;;12.46;70.01
3150;BME280;32503;47.748;8.960;2023-10-31T03:25:38;95684.59;;;12.45;69.53
3150;BME280;32503;47.748;8.960;2023-10-31T03:28:17;95678.13;;;12.25;69.70
3150;BME280;32503;47.748;8.960;2023-10-31T03:30:47;95686.22;;;12.36;69.40
3150;BME280;32503;47.748;8.960;2023-10-31T03:33:14;95657.66;;;12.13;69.28
3150;BME280;32503;47.748;8.960;2023-10-31T03:35:42;95686.56;;;12.41;69.25
3150;BME280;32503;47.748;8.960;2023-10-31T03:38:09;95687.75;;;12.33;69.45
3150;BME280;32503;47.748;8.960;2023-10-31T03:40:36;95697.06;;;12.32;69.37
3150;BME280;32503;47.748;8.960;2023-10-31T03:43:04;95687.78;;;12.29;69.46
3150;BME280;32503;47.748;8.960;2023-10-31T03:45:31;95691.69;;;12.25;69.43
3150;BME280;32503;47.748;8.960;2023-10-31T03:47:59;95697.47;;;12.27;69.57
3150;BME280;32503;47.748;8.960;2023-10-31T03:50:26;95684.78;;;12.02;70.62
3150;BME280;32503;47.748;8.960;2023-10-31T03:52:54;95701.38;;;12.19;70.36
3150;BME280;32503;47.748;8.960;2023-10-31T03:55:21;95701.00;;;12.17;70.45
3150;BME280;32503;47.748;8.960;2023-10-31T03:57:48;95708.72;;;12.22;70.25
3150;BME280;32503;47.748;8.960;2023-10-31T04:00:16;95680.50;;;12.08;70.18
3150;BME280;32503;47.748;8.960;2023-10-31T04:02:43;95701.75;;;12.21;70.45
3150;BME280;32503;47.748;8.960;2023-10-31T04:05:11;95727.69;;;12.18;70.37
3150;BME280;32503;47.748;8.960;2023-10-31T04:07:38;95710.28;;;12.16;69.94
3150;BME280;32503;47.748;8.960;2023-10-31T04:10:07;95712.59;;;12.21;69.99
3150;BME280;32503;47.748;8.960;2023-10-31T04:12:35;95708.38;;;12.12;70.01
3150;BME280;32503;47.748;8.960;2023-10-31T04:15:03;95717.66;;;12.04;69.93
3150;BME280;32503;47.748;8.960;2023-10-31T04:17:31;95712.63;;;12.06;69.98
3150;BME280;32503;47.748;8.960;2023-10-31T04:19:58;95715.72;;;12.05;70.20
3150;BME280;32503;47.748;8.960;2023-10-31T04:22:26;95732.75;;;11.98;70.12
3150;BME280;32503;47.748;8.960;2023-10-31T04:24:53;95745.16;;;11.99;69.96
3150;BME280;32503;47.748;8.960;2023-10-31T04:27:20;95752.13;;;12.00;69.73
3150;BME280;32503;47.748;8.960;2023-10-31T04:29:47;95748.25;;;11.87;70.02
3150;BME280;32503;47.748;8.960;2023-10-31T04:32:14;95748.25;;;11.87;69.55
3150;BME280;32503;47.748;8.960;2023-10-31T04:34:41;95742.84;;;11.80;69.60
3150;BME280;32503;47.748;8.960;2023-10-31T04:37:08;95751.72;;;11.91;69.49
3150;BME280;32503;47.748;8.960;2023-10-31T04:39:37;95753.66;;;11.83;68.88
3150;BME280;32503;47.748;8.960;2023-10-31T04:42:05;95772.63;;;11.90;68.92
3150;BME280;32503;47.748;8.960;2023-10-31T04:44:32;95765.25;;;11.87;69.27
3150;BME280;32503;47.748;8.960;2023-10-31T04:46:59;95764.09;;;11.85;68.88
3150;BME280;32503;47.748;8.960;2023-10-31T04:49:26;95763.34;;;11.84;69.17
3150;BME280;32503;47.748;8.960;2023-10-31T04:51:53;95762.19;;;11.74;69.41
3150;BME280;32503;47.748;8.960;2023-10-31T04:54:20;95772.25;;;11.77;69.10
3150;BME280;32503;47.748;8.960;2023-10-31T04:56:49;95780.75;;;11.80;68.91
3150;BME280;32503;47.748;8.960;2023-10-31T04:59:16;95773.00;;;11.71;69.02
3150;BME280;32503;47.748;8.960;2023-10-31T05:01:48;95773.78;;;11.75;69.05
3150;BME280;32503;47.748;8.960;2023-10-31T05:04:16;95760.63;;;11.66;68.77
3150;BME280;32503;47.748;8.960;2023-10-31T05:06:43;95776.47;;;11.71;69.52
3150;BME280;32503;47.748;8.960;2023-10-31T05:09:11;95760.25;;;11.57;69.56
3150;BME280;32503;47.748;8.960;2023-10-31T05:11:38;95780.75;;;11.65;69.03
3150;BME280;32503;47.748;8.960;2023-10-31T05:14:09;95792.34;;;11.62;69.82
3150;BME280;32503;47.748;8.960;2023-10-31T05:16:40;95784.59;;;11.68;69.41
3150;BME280;32503;47.748;8.960;2023-10-31T05:19:08;95784.63;;;11.64;69.42
3150;BME280;32503;47.748;8.960;2023-10-31T05:21:35;95794.28;;;11.65;69.72
3150;BME280;32503;47.748;8.960;2023-10-31T05:24:06;95798.53;;;11.66;69.50
3150;BME280;32503;47.748;8.960;2023-10-31T05:26:34;95802.41;;;11.65;69.66
3150;BME280;32503;47.748;8.960;2023-10-31T05:29:01;95800.09;;;11.67;69.44
3150;BME280;32503;47.748;8.960;2023-10-31T05:31:29;95798.53;;;11.70;69.49
3150;BME280;32503;47.748;8.960;2023-10-31T05:33:56;95797.75;;;11.66;69.98
3150;BME280;32503;47.748;8.960;2023-10-31T05:36:25;95793.91;;;11.67;69.97
3150;BME280;32503;47.748;8.960;2023-10-31T05:38:53;95791.59;;;11.65;70.25
3150;BME280;32503;47.748;8.960;2023-10-31T05:41:21;95798.53;;;11.70;69.61
3150;BME280;32503;47.748;8.960;2023-10-31T05:43:48;95801.66;;;11.68;70.06
3150;BME280;32503;47.748;8.960;2023-10-31T05:46:15;95791.97;;;11.67;69.66
3150;BME280;32503;47.748;8.960;2023-10-31T05:48:45;95799.69;;;11.72;70.01
3150;BME280;32503;47.748;8.960;2023-10-31T05:51:13;95805.13;;;11.72;69.43
3150;BME280;32503;47.748;8.960;2023-10-31T05:53:43;95796.63;;;11.60;69.63
3150;BME280;32503;47.748;8.960;2023-10-31T05:56:12;95805.50;;;11.71;69.80
3150;BME280;32503;47.748;8.960;2023-10-31T05:58:39;95817.88;;;11.72;70.09
3150;BME280;32503;47.748;8.960;2023-10-31T06:01:07;95820.97;;;11.70;70.17
3150;BME280;32503;47.748;8.960;2023-10-31T06:03:34;95825.59;;;11.73;70.23
3150;BME280;32503;47.748;8.960;2023-10-31T06:06:04;95827.16;;;11.71;69.81
3150;BME280;32503;47.748;8.960;2023-10-31T06:08:32;95832.56;;;11.74;69.99
3150;BME280;32503;47.748;8.960;2023-10-31T06:11:00;95840.31;;;11.76;70.07
3150;BME280;32503;47.748;8.960;2023-10-31T06:13:27;95839.53;;;11.75;70.19
3150;BME280;32503;47.748;8.960;2023-10-31T06:15:56;95832.56;;;11.74;69.71
3150;BME280;32503;47.748;8.960;2023-10-31T06:18:23;95829.09;;;11.60;70.01
3150;BME280;32503;47.748;8.960;2023-10-31T06:20:51;95846.88;;;11.71;69.83
3150;BME280;32503;47.748;8.960;2023-10-31T06:23:19;95849.97;;;11.73;69.32
3150;BME280;32503;47.748;8.960;2023-10-31T06:25:46;95854.63;;;11.73;69.89
3150;BME280;32503;47.748;8.960;2023-10-31T06:28:13;95860.03;;;11.73;70.01
3150;BME280;32503;47.748;8.960;2023-10-31T06:30:40;95857.31;;;11.73;69.91
3150;BME280;32503;47.748;8.960;2023-10-31T06:33:07;95858.50;;;11.72;69.54
3150;BME280;32503;47.748;8.960;2023-10-31T06:35:36;95864.28;;;11.70;69.52
3150;BME280;32503;47.748;8.960;2023-10-31T06:38:03;95873.19;;;11.74;69.92
3150;BME280;32503;47.748;8.960;2023-10-31T06:40:31;95864.69;;;11.76;70.24
3150;BME280;32503;47.748;8.960;2023-10-31T06:42:58;95867.78;;;11.74;70.15
3150;BME280;32503;47.748;8.960;2023-10-31T06:45:26;95858.88;;;11.74;70.57
3150;BME280;32503;47.748;8.960;2023-10-31T06:47:53;95876.28;;;11.84;70.58
3150;BME280;32503;47.748;8.960;2023-10-31T06:50:20;95880.16;;;11.83;70.29
3150;BME280;32503;47.748;8.960;2023-10-31T06:52:48;95884.41;;;11.84;70.27
3150;BME280;32503;47.748;8.960;2023-10-31T06:55:15;95891.38;;;11.88;70.37
3150;BME280;32503;47.748;8.960;2023-10-31T06:57:43;95902.25;;;11.92;69.83
3150;BME280;32503;47.748;8.960;2023-10-31T07:00:12;95895.69;;;11.93;70.15
3150;BME280;32503;47.748;8.960;2023-10-31T07:02:39;95906.91;;;11.95;69.81
3150;BME280;32503;47.748;8.960;2023-10-31T07:05:06;95905.34;;;11.98;69.96
3150;BME280;32503;47.748;8.960;2023-10-31T07:07:34;95910.00;;;12.01;69.81
3150;BME280;32503;47.748;8.960;2023-10-31T07:10:01;95911.53;;;11.98;69.33
3150;BME280;32503;47.748;8.960;2023-10-31T07:12:28;95919.66;;;11.98;69.39
3150;BME280;32503;47.748;8.960;2023-10-31T07:14:56;95902.59;;;11.87;69.66
3150;BME280;32503;47.748;8.960;2023-10-31T07:17:24;95914.63;;;12.00;69.69
3150;BME280;32503;47.748;8.960;2023-10-31T07:19:51;95912.31;;;12.02;69.64
3150;BME280;32503;47.748;8.960;2023-10-31T07:22:18;95920.44;;;12.02;69.51
3150;BME280;32503;47.748;8.960;2023-10-31T07:24:45;95926.63;;;12.06;69.35
3150;BME280;32503;47.748;8.960;2023-10-31T07:27:12;95921.59;;;12.08;68.92
3150;BME280;32503;47.748;8.960;2023-10-31T07:29:40;95936.31;;;12.11;69.47
3150;BME280;32503;47.748;8.960;2023-10-31T07:32:09;95920.44;;;12.13;69.17
3150;BME280;32503;47.748;8.960;2023-10-31T07:34:36;95930.91;;;12.14;69.11
3150;BME280;32503;47.748;8.960;2023-10-31T07:37:03;95920.06;;;12.18;69.42
3150;BME280;32503;47.748;8.960;2023-10-31T07:39:30;95920.81;;;12.22;69.14
3150;BME280;32503;47.748;8.960;2023-10-31T07:41:57;95926.25;;;12.26;69.37
3150;BME280;32503;47.748;8.960;2023-10-31T07:44:24;95927.00;;;12.30;69.25
3150;BME280;32503;47.748;8.960;2023-10-31T07:46:51;95920.03;;;12.36;68.68
3150;BME280;32503;47.748;8.960;2023-10-31T07:49:20;95927.78;;;12.41;68.63
3150;BME280;32503;47.748;8.960;2023-10-31T07:51:48;95908.44;;;12.32;68.82
3150;BME280;32503;47.748;8.960;2023-10-31T07:54:15;95928.16;;;12.43;68.16
3150;BME280;32503;47.748;8.960;2023-10-31T07:56:43;95930.50;;;12.48;68.42
3150;BME280;32503;47.748;8.960;2023-10-31T07:59:10;95942.47;;;12.47;68.18
3150;BME280;32503;47.748;8.960;2023-10-31T08:01:37;95899.13;;;12.29;67.99
3150;BME280;32503;47.748;8.960;2023-10-31T08:04:05;95939.38;;;12.52;67.92
3150;BME280;32503;47.748;8.960;2023-10-31T08:06:33;95949.44;;;12.56;67.77
3150;BME280;32503;47.748;8.960;2023-10-31T08:09:00;95946.34;;;12.61;67.55
3150;BME280;32503;47.748;8.960;2023-10-31T08:11:27;95938.63;;;12.48;67.17
3150;BME280;32503;47.748;8.960;2023-10-31T08:13:55;95951.00;;;12.64;66.54
3150;BME280;32503;47.748;8.960;2023-10-31T08:16:22;95935.13;;;12.51;67.04
3150;BME280;32503;47.748;8.960;2023-10-31T08:18:49;95948.69;;;12.62;67.28
3150;BME280;32503;47.748;8.960;2023-10-31T08:21:16;95954.88;;;12.63;67.21
3150;BME280;32503;47.748;8.960;2023-10-31T08:23:44;95955.63;;;12.63;67.31
3150;BME280;32503;47.748;8.960;2023-10-31T08:26:12;95961.84;;;12.60;67.13
3150;BME280;32503;47.748;8.960;2023-10-31T08:28:39;95955.63;;;12.67;66.92
3150;BME280;32503;47.748;8.960;2023-10-31T08:31:07;95970.75;;;12.64;67.59
3150;BME280;32503;47.748;8.960;2023-10-31T08:33:34;95967.28;;;12.60;68.49
3150;BME280;32503;47.748;8.960;2023-10-31T08:36:01;95961.84;;;12.60;69.07
3150;BME280;32503;47.748;8.960;2023-10-31T08:38:28;95967.28;;;12.49;69.72
3150;BME280;32503;47.748;8.960;2023-10-31T08:40:57;95968.44;;;12.52;69.72
3150;BME280;32503;47.748;8.960;2023-10-31T08:43:27;95964.19;;;12.62;70.08
3150;BME280;32503;47.748;8.960;2023-10-31T08:45:54;95965.72;;;12.63;70.19
3150;BME280;32503;47.748;8.960;2023-10-31T08:48:21;95962.59;;;12.68;70.18
3150;BME280;32503;47.748;8.960;2023-10-31T08:50:48;95966.06;;;12.72;70.03
3150;BME280;32503;47.748;8.960;2023-10-31T08:53:15;95976.16;;;12.75;69.91
3150;BME280;32503;47.748;8.960;2023-10-31T08:55:45;95977.72;;;12.76;69.89
3150;BME280;32503;47.748;8.960;2023-10-31T08:58:14;95978.09;;;12.78;69.74
3150;BME280;32503;47.748;8.960;2023-10-31T09:00:43;95978.84;;;12.79;69.71
3150;BME280;32503;47.748;8.960;2023-10-31T09:03:10;95983.50;;;12.82;69.72
3150;BME280;32503;47.748;8.960;2023-10-31T09:05:37;95982.75;;;12.85;69.57
3150;BME280;32503;47.748;8.960;2023-10-31T09:08:05;95986.22;;;12.85;69.42
3150;BME280;32503;47.748;8.960;2023-10-31T09:10:32;95980.78;;;12.93;69.13
3150;BME280;32503;47.748;8.960;2023-10-31T09:12:59;95981.53;;;12.97;68.88
3150;BME280;32503;47.748;8.960;2023-10-31T09:15:28;95975.72;;;12.98;68.41
3150;BME280;32503;47.748;8.960;2023-10-31T09:17:55;95972.22;;;13.01;68.69
3150;BME280;32503;47.748;8.960;2023-10-31T09:20:22;95970.28;;;13.02;68.71
3150;BME280;32503;47.748;8.960;2023-10-31T09:22:49;95972.59;;;13.11;68.34
3150;BME280;32503;47.748;8.960;2023-10-31T09:25:16;95975.66;;;13.16;68.43
3150;BME280;32503;47.748;8.960;2023-10-31T09:27:43;95982.28;;;13.12;68.13
3150;BME280;32503;47.748;8.960;2023-10-31T09:30:10;95976.88;;;13.08;68.05
3150;BME280;32503;47.748;8.960;2023-10-31T09:32:39;95978.78;;;13.11;68.10
3150;BME280;32503;47.748;8.960;2023-10-31T09:35:07;95977.66;;;13.05;68.38
3150;BME280;32503;47.748;8.960;2023-10-31T09:37:34;95974.16;;;13.08;68.43
3150;BME280;32503;47.748;8.960;2023-10-31T09:40:01;95977.22;;;13.17;68.21
3150;BME280;32503;47.748;8.960;2023-10-31T09:42:29;95980.66;;;13.28;67.58
3150;BME280;32503;47.748;8.960;2023-10-31T09:44:56;95981.47;;;13.33;67.37
3150;BME280;32503;47.748;8.960;2023-10-31T09:47:23;95979.50;;;13.40;67.33
3150;BME280;32503;47.748;8.960;2023-10-31T09:49:53;95978.31;;;13.52;66.82
3150;BME280;32503;47.748;8.960;2023-10-31T09:52:20;95974.00;;;13.55;67.04
3150;BME280;32503;47.748;8.960;2023-10-31T09:54:47;95966.28;;;13.46;66.93
3150;BME280;32503;47.748;8.960;2023-10-31T09:57:16;95964.72;;;13.52;66.53
3150;BME280;32503;47.748;8.960;2023-10-31T09:59:44;95977.09;;;13.57;66.78
3150;BME280;32503;47.748;8.960;2023-10-31T10:02:11;95970.09;;;13.63;66.45
3150;BME280;32503;47.748;8.960;2023-10-31T10:04:38;95978.56;;;13.76;66.33
3150;BME280;32503;47.748;8.960;2023-10-31T10:07:07;95978.56;;;13.76;65.30
3150;BME280;32503;47.748;8.960;2023-10-31T10:09:34;95979.28;;;13.87;65.36
3150;BME280;32503;47.748;8.960;2023-10-31T10:12:02;95975.75;;;13.90;65.57
3150;BME280;32503;47.748;8.960;2023-10-31T10:14:29;95969.53;;;13.97;64.99
3150;BME280;32503;47.748;8.960;2023-10-31T10:16:57;95983.88;;;13.97;64.55
3150;BME280;32503;47.748;8.960;2023-10-31T10:19:24;95975.38;;;13.88;64.09
3150;BME280;32503;47.748;8.960;2023-10-31T10:21:53;95961.47;;;13.79;64.00
3150;BME280;32503;47.748;8.960;2023-10-31T10:24:23;95980.03;;;13.91;64.25
3150;BME280;32503;47.748;8.960;2023-10-31T10:26:51;95985.44;;;13.95;63.87
3150;BME280;32503;47.748;8.960;2023-10-31T10:29:18;95996.34;;;13.91;64.27
3150;BME280;32503;47.748;8.960;2023-10-31T10:31:45;95989.31;;;13.94;64.67
3150;BME280;32503;47.748;8.960;2023-10-31T10:34:15;95985.03;;;14.00;64.48
3150;BME280;32503;47.748;8.960;2023-10-31T10:36:46;95992.38;;;14.07;64.50
3150;BME280;32503;47.748;8.960;2023-10-31T10:39:16;95984.50;;;14.19;64.30
3150;BME280;32503;47.748;8.960;2023-10-31T10:41:50;95985.94;;;14.38;63.53
3150;BME280;32503;47.748;8.960;2023-10-31T10:44:19;95993.09;;;14.70;63.30
3150;BME280;32503;47.748;8.960;2023-10-31T10:46:54;95986.94;;;15.04;62.62
3150;BME280;32503;47.748;8.960;2023-10-31T10:49:25;95993.69;;;15.27;61.74
3150;BME280;32503;47.748;8.960;2023-10-31T10:51:58;95989.56;;;15.46;61.05
3150;BME280;32503;47.748;8.960;2023-10-31T10:54:34;95996.50;;;15.54;60.58
3150;BME280;32503;47.748;8.960;2023-10-31T10:57:13;95997.16;;;15.62;59.64
3150;BME280;32503;47.748;8.960;2023-10-31T10:59:43;95997.16;;;15.62;58.96
3150;BME280;32503;47.748;8.960;2023-10-31T11:02:17;95994.91;;;15.57;58.92
3150;BME280;32503;47.748;8.960;2023-10-31T11:04:44;95995.38;;;15.51;58.80
3150;BME280;32503;47.748;8.960;2023-10-31T11:07:12;95997.34;;;15.47;58.28
3150;BME280;32503;47.748;8.960;2023-10-31T11:09:41;95988.84;;;15.42;58.92
3150;BME280;32503;47.748;8.960;2023-10-31T11:12:11;96002.34;;;15.52;58.60
3150;BME280;32503;47.748;8.960;2023-10-31T11:14:39;96000.69;;;15.62;58.35
3150;BME280;32503;47.748;8.960;2023-10-31T11:17:24;95994.06;;;15.60;58.17
3150;BME280;32503;47.748;8.960;2023-10-31T11:19:53;96007.97;;;15.72;58.14
3150;BME280;32503;47.748;8.960;2023-10-31T11:22:21;96008.66;;;15.80;58.13
3150;BME280;32503;47.748;8.960;2023-10-31T11:24:49;95984.59;;;15.75;57.80
3150;BME280;32503;47.748;8.960;2023-10-31T11:27:18;96007.53;;;15.78;57.73
3150;BME280;32503;47.748;8.960;2023-10-31T11:29:46;96009.88;;;15.76;57.85
3150;BME280;32503;47.748;8.960;2023-10-31T11:32:14;96011.09;;;15.71;57.38
3150;BME280;32503;47.748;8.960;2023-10-31T11:34:42;96023.16;;;15.70;57.37
3150;BME280;32503;47.748;8.960;2023-10-31T11:37:23;96008.91;;;15.59;57.75
3150;BME280;32503;47.748;8.960;2023-10-31T11:40:21;96012.06;;;15.53;58.01
3150;BME280;32503;47.748;8.960;2023-10-31T11:42:51;96011.38;;;15.46;57.80
3150;BME280;32503;47.748;8.960;2023-10-31T11:45:33;96017.72;;;15.35;58.25
3150;BME280;32503;47.748;8.960;2023-10-31T11:48:01;96004.47;;;15.38;58.26
3150;BME280;32503;47.748;8.960;2023-10-31T11:50:30;96021.38;;;15.56;57.94
3150;BME280;32503;47.748;8.960;2023-10-31T11:53:05;96019.84;;;15.55;57.42
3150;BME280;32503;47.748;8.960;2023-10-31T11:55:34;96030.69;;;15.59;57.94
3150;BME280;32503;47.748;8.960;2023-10-31T11:58:17;96019.88;;;15.51;57.64
3150;BME280;32503;47.748;8.960;2023-10-31T12:00:45;96020.72;;;15.45;58.01
3150;BME280;32503;47.748;8.960;2023-10-31T12:03:16;96006.56;;;15.23;57.92
3150;BME280;32503;47.748;8.960;2023-10-31T12:05:54;96033.28;;;15.35;58.14
3150;BME280;32503;47.748;8.960;2023-10-31T12:08:29;96031.00;;;15.30;58.03
3150;BME280;32503;47.748;8.960;2023-10-31T12:11:08;96032.94;;;15.29;57.93
3150;BME280;32503;47.748;8.960;2023-10-31T12:13:38;96044.28;;;15.24;58.62
3150;BME280;32503;47.748;8.960;2023-10-31T12:16:07;96043.53;;;15.20;59.40
3150;BME280;32503;47.748;8.960;2023-10-31T12:18:34;96038.44;;;15.26;59.89
3150;BME280;32503;47.748;8.960;2023-10-31T12:21:02;96031.91;;;15.20;60.80
3150;BME280;32503;47.748;8.960;2023-10-31T12:23:30;96040.00;;;15.27;61.33
3150;BME280;32503;47.748;8.960;2023-10-31T12:25:57;96040.03;;;15.23;61.98
3150;BME280;32503;47.748;8.960;2023-10-31T12:28:25;96043.47;;;15.27;61.40
3150;BME280;32503;47.748;8.960;2023-10-31T12:30:55;96035.66;;;15.29;61.58
3150;BME280;32503;47.748;8.960;2023-10-31T12:33:26;96050.09;;;15.26;61.13
3150;BME280;32503;47.748;8.960;2023-10-31T12:35:58;96047.75;;;15.28;61.48
3150;BME280;32503;47.748;8.960;2023-10-31T12:38:26;96044.19;;;15.31;61.67
3150;BME280;32503;47.748;8.960;2023-10-31T12:40:54;96044.19;;;15.31;61.33
3150;BME280;32503;47.748;8.960;2023-10-31T12:43:22;96047.31;;;15.30;61.67
3150;BME280;32503;47.748;8.960;2023-10-31T12:45:49;96045.03;;;15.28;61.35
3150;BME280;32503;47.748;8.960;2023-10-31T12:48:24;96047.31;;;15.30;61.88
3150;BME280;32503;47.748;8.960;2023-10-31T12:51:06;96037.69;;;15.22;61.67
3150;BME280;32503;47.748;8.960;2023-10-31T12:53:34;96054.75;;;15.26;61.56
3150;BME280;32503;47.748;8.960;2023-10-31T12:56:01;96036.50;;;15.23;62.21
3150;BME280;32503;47.748;8.960;2023-10-31T12:58:29;96036.44;;;15.30;62.28
3150;BME280;32503;47.748;8.960;2023-10-31T13:00:56;96055.06;;;15.35;62.15
3150;BME280;32503;47.748;8.960;2023-10-31T13:03:24;96054.25;;;15.38;61.78
3150;BME280;32503;47.748;8.960;2023-10-31T13:05:51;96052.28;;;15.39;62.10
3150;BME280;32503;47.748;8.960;2023-10-31T13:08:22;96054.66;;;15.36;61.88
3150;BME280;32503;47.748;8.960;2023-10-31T13:10:50;96050.81;;;15.34;61.71
3150;BME280;32503;47.748;8.960;2023-10-31T13:13:17;96047.31;;;15.30;61.91
3150;BME280;32503;47.748;8.960;2023-10-31T13:15:43;96045.78;;;15.29;62.10